Historyczne dane pomiarowe

Dodano dane terminowe – wersja testowa.

Dane z okresu 1951-2019

Wersja bazy: 1.34 [2019-03-16, lista zmian], aktualizacja planowana na 2019-04-15

Dane meteo z obszaru Polski uzyskane na podstawie danych udostępnionych przez Instytut Meteorologii i Gospodarki Wodnej – Państwowy Instytut Badawczy.

 

Wybierz Datę:    

       

TemperaturaWilgotnośćWiatrCiśnienieOpadyŚniegCzas trwania zjawisk
 Stacja t tx tn tng RH VA  wxwx mslp ppp RRR   cm mm wxwxwxwxwxwxwx
1970-10-10 11.0 13.2 8.4 4.9-- 8.0 2.0---- 0.0------------
1970-10-09 11.8 21.6 7.1 3.4-- 2.7 1.0---- 0.0------------
1970-10-08 10.8 18.1 4.6 1.5-- 0.0 3.0---- 0.0------------
1970-10-07 7.4 15.4 2.0 0.5-- 1.7 2.3---- 0.0------------
1970-10-06 7.4 14.3 4.1 -0.4-- 4.0 1.0---- 0.0------------
1970-10-05 5.4 8.3 1.6 -1.0-- 8.0 1.3---- 0.0------------
1970-10-04 6.3 14.3 0.6 -1.7-- 5.0 0.7---- 0.0------------
1970-10-03 6.0 10.0 3.9 7.5-- 5.3 2.0---- 0.0------------
1970-10-02 8.8 10.6 8.1 8.0-- 8.0 3.0---- 5.7------------
1970-10-01 7.7 10.2 5.2 2.0-- 8.0 3.3---- 1.9------------
1970-09-30 7.9 14.6 4.8 1.0-- 0.3 0.7---- 0.0------------
1970-09-29 7.1 11.1 1.5 -2.2-- 7.7 1.3---- 0.0------------
1970-09-28 3.2 9.0 -0.4 -2.5-- 4.7 2.0---- 0.0------------
1970-09-27 5.0 11.6 -0.1 -0.9-- 2.7 2.3---- 0.2------------
1970-09-26 5.4 11.3 3.0 4.8-- 5.0 1.7---- 0.0------------
1970-09-25 6.9 11.7 4.1 3.7-- 5.7 4.0---- 3.4------------
1970-09-24 6.7 11.6 3.5 3.7-- 4.0 4.3---- 0.0------------
1970-09-23 6.1 10.8 4.5 2.8-- 5.0 3.3---- 0.4------------
1970-09-22 7.7 13.5 6.5 4.4-- 4.0 3.7---- 0.2------------
1970-09-21 12.7 18.2 9.1 7.1-- 7.3 2.7---- 2.6------------
1970-09-20 12.0 19.8 9.2 6.0-- 4.7 1.0---- 0.0------------
1970-09-19 12.0 15.6 8.6 6.0-- 7.3 1.3---- 0.3------------
1970-09-18 11.9 18.5 7.1 4.3-- 6.7 1.7---- 0.2------------
1970-09-17 13.5 18.3 12.4 10.8-- 4.3 2.7---- 0.0------------
1970-09-16 18.2 25.4 9.6 6.4-- 5.7 3.3---- 1.3------------
1970-09-15 16.5 24.4 11.2 8.0-- 1.0 3.0---- 0.0------------
1970-09-14 13.2 18.2 8.9 6.9-- 2.3 5.0---- 0.0------------
1970-09-13 11.9 16.7 6.3 3.8-- 5.0 2.7---- 3.1------------
1970-09-12 14.4 19.2 12.2 13.1-- 3.7 1.7---- 0.0------------
1970-09-11 19.5 26.9 14.3 10.0-- 3.0 1.0---- 0.0------------
1970-09-10 17.8 25.2 11.7 8.4-- 1.3 2.0---- 0.0------------
1970-09-09 15.7 22.3 9.5 6.5-- 2.7 2.7---- 0.0------------
1970-09-08 10.9 17.1 5.6 3.1-- 5.0 2.0---- 0.0------------
1970-09-07 9.7 16.4 7.6 7.5-- 6.3 3.0---- 0.0------------
1970-09-06 11.0 15.1 9.6 8.0-- 7.3 4.7---- 4.9------------
1970-09-05 10.4 15.5 7.0 4.9-- 5.0 3.3---- 3.5------------
1970-09-04 12.6 17.3 10.3 7.1-- 5.7 2.3---- 1.0------------
1970-09-03 14.0 19.9 8.7 7.4-- 4.0 1.0---- 0.4------------
1970-09-02 13.6 19.1 11.9 11.7-- 6.3 2.3---- 4.8------------
1970-09-01 16.9 25.3 10.6 8.4-- 1.7 1.3---- 0.5------------
1970-08-31 16.8 23.9 14.8 13.1-- 3.0 1.0---- 0.0------------
1970-08-30 17.4 25.1 10.8 8.1-- 2.0 2.3---- 0.2------------
1970-08-29 16.3 24.1 10.1 6.9-- 5.0 2.7---- 0.0------------
1970-08-28 13.6 21.3 4.7 3.1-- 0.0 1.3---- 0.0------------
1970-08-27 11.7 18.7 9.5 7.6-- 2.3 1.3---- 0.0------------
1970-08-26 13.7 19.4 12.1 9.8-- 3.0 2.3---- 0.0------------
1970-08-25 14.4 20.4 11.4 8.7-- 3.0 1.3---- 0.0------------
1970-08-24 15.7 24.1 9.4 6.8-- 2.0 0.7---- 1.4------------
1970-08-23 15.8 24.3 9.1 7.1-- 3.3 1.0---- 0.0------------
1970-08-22 14.1 22.5 8.2 5.9-- 0.7 1.3---- 0.0------------
1970-08-21 13.7 21.7 8.5 5.9-- 0.7 1.3---- 0.0------------
1970-08-20 13.6 20.1 9.8 7.3-- 2.7 0.7---- 0.0------------
1970-08-19 14.5 16.9 12.1 11.9-- 6.7 2.0---- 0.4------------
1970-08-18 14.1 17.2 12.1 12.2-- 8.0 3.3---- 13.4------------
1970-08-17 16.9 23.6 9.1 7.2-- 3.0 1.0---- 0.2------------
1970-08-16 15.5 22.4 11.2 9.3-- 3.0 1.0---- 0.0------------
1970-08-15 15.4 22.7 9.2 7.3-- 0.7 2.3---- 0.0------------
1970-08-14 15.1 22.1 11.7 9.8-- 2.3 4.0---- 0.0------------
1970-08-13 14.0 18.7 10.1 8.2-- 4.7 2.0---- 0.3------------
1970-08-12 13.2 18.2 12.0 11.2-- 3.7 3.7---- 4.2------------
436.9 ms

 

Źródłem pochodzenia danych jest Instytut Meteorologii i Gospodarki Wodnej – Państwowy Instytut Badawczy. Dane Instytutu Meteorologii i Gospodarki Wodnej – Państwowego Instytutu Badawczego zostały przetworzone.

Dane źródłowe można odnaleźć na stronie https://dane.imgw.pl